sensor_id;sensor_type;location;lat;lon;timestamp;P1;durP1;ratioP1;P2;durP2;ratioP2
58528;SDS011;44322;52.968;5.816;2023-05-29T00:01:14;13.27;;;2.67;;
58528;SDS011;44322;52.968;5.816;2023-05-29T00:03:46;10.48;;;2.40;;
58528;SDS011;44322;52.968;5.816;2023-05-29T00:06:13;14.50;;;3.33;;
58528;SDS011;44322;52.968;5.816;2023-05-29T00:08:38;13.63;;;2.22;;
58528;SDS011;44322;52.968;5.816;2023-05-29T00:11:04;10.57;;;2.53;;
58528;SDS011;44322;52.968;5.816;2023-05-29T00:13:30;11.18;;;2.45;;
58528;SDS011;44322;52.968;5.816;2023-05-29T00:15:55;11.15;;;2.10;;
58528;SDS011;44322;52.968;5.816;2023-05-29T00:18:21;12.48;;;2.13;;
58528;SDS011;44322;52.968;5.816;2023-05-29T00:20:47;13.93;;;2.72;;
58528;SDS011;44322;52.968;5.816;2023-05-29T00:23:13;15.20;;;3.95;;
58528;SDS011;44322;52.968;5.816;2023-05-29T00:25:38;15.00;;;3.08;;
58528;SDS011;44322;52.968;5.816;2023-05-29T00:28:06;8.75;;;2.13;;
58528;SDS011;44322;52.968;5.816;2023-05-29T00:30:32;15.18;;;2.63;;
58528;SDS011;44322;52.968;5.816;2023-05-29T00:32:58;11.00;;;2.28;;
58528;SDS011;44322;52.968;5.816;2023-05-29T00:35:24;14.55;;;2.90;;
58528;SDS011;44322;52.968;5.816;2023-05-29T00:37:49;10.90;;;2.38;;
58528;SDS011;44322;52.968;5.816;2023-05-29T00:40:15;12.23;;;2.75;;
58528;SDS011;44322;52.968;5.816;2023-05-29T00:42:41;10.10;;;2.28;;
58528;SDS011;44322;52.968;5.816;2023-05-29T00:45:07;12.63;;;3.10;;
58528;SDS011;44322;52.968;5.816;2023-05-29T00:47:33;13.68;;;3.50;;
58528;SDS011;44322;52.968;5.816;2023-05-29T00:49:58;14.23;;;2.78;;
58528;SDS011;44322;52.968;5.816;2023-05-29T00:52:25;9.50;;;2.17;;
58528;SDS011;44322;52.968;5.816;2023-05-29T00:54:51;9.90;;;2.10;;
58528;SDS011;44322;52.968;5.816;2023-05-29T00:57:17;17.02;;;2.78;;
58528;SDS011;44322;52.968;5.816;2023-05-29T00:59:42;11.23;;;2.58;;
58528;SDS011;44322;52.968;5.816;2023-05-29T01:02:09;13.27;;;2.30;;
58528;SDS011;44322;52.968;5.816;2023-05-29T01:04:35;13.70;;;2.85;;
58528;SDS011;44322;52.968;5.816;2023-05-29T01:07:01;16.48;;;3.20;;
58528;SDS011;44322;52.968;5.816;2023-05-29T01:09:30;9.93;;;2.40;;
58528;SDS011;44322;52.968;5.816;2023-05-29T01:17:23;11.13;;;2.10;;
58528;SDS011;44322;52.968;5.816;2023-05-29T01:28:49;9.82;;;2.20;;
58528;SDS011;44322;52.968;5.816;2023-05-29T01:31:19;13.88;;;2.90;;
58528;SDS011;44322;52.968;5.816;2023-05-29T01:33:53;14.02;;;2.90;;
58528;SDS011;44322;52.968;5.816;2023-05-29T01:36:19;12.93;;;2.78;;
58528;SDS011;44322;52.968;5.816;2023-05-29T01:38:45;10.57;;;2.55;;
58528;SDS011;44322;52.968;5.816;2023-05-29T01:41:11;12.30;;;2.35;;
58528;SDS011;44322;52.968;5.816;2023-05-29T01:43:37;12.95;;;2.47;;
58528;SDS011;44322;52.968;5.816;2023-05-29T01:46:03;11.90;;;3.40;;
58528;SDS011;44322;52.968;5.816;2023-05-29T01:48:29;10.45;;;2.40;;
58528;SDS011;44322;52.968;5.816;2023-05-29T01:50:55;12.18;;;3.17;;
58528;SDS011;44322;52.968;5.816;2023-05-29T01:55:49;11.35;;;3.35;;
58528;SDS011;44322;52.968;5.816;2023-05-29T01:58:16;9.07;;;2.30;;
58528;SDS011;44322;52.968;5.816;2023-05-29T02:00:43;8.43;;;2.10;;
58528;SDS011;44322;52.968;5.816;2023-05-29T02:03:09;14.43;;;2.97;;
58528;SDS011;44322;52.968;5.816;2023-05-29T02:05:34;9.65;;;2.15;;
58528;SDS011;44322;52.968;5.816;2023-05-29T02:08:00;17.48;;;3.03;;
58528;SDS011;44322;52.968;5.816;2023-05-29T02:10:25;13.77;;;2.80;;
58528;SDS011;44322;52.968;5.816;2023-05-29T02:12:51;7.57;;;2.10;;
58528;SDS011;44322;52.968;5.816;2023-05-29T02:15:17;13.68;;;2.10;;
58528;SDS011;44322;52.968;5.816;2023-05-29T02:17:42;14.00;;;2.65;;
58528;SDS011;44322;52.968;5.816;2023-05-29T02:20:10;18.90;;;3.30;;
58528;SDS011;44322;52.968;5.816;2023-05-29T02:22:36;13.23;;;2.90;;
58528;SDS011;44322;52.968;5.816;2023-05-29T02:25:01;11.95;;;2.58;;
58528;SDS011;44322;52.968;5.816;2023-05-29T02:27:27;7.00;;;2.40;;
58528;SDS011;44322;52.968;5.816;2023-05-29T02:29:53;11.45;;;2.50;;
58528;SDS011;44322;52.968;5.816;2023-05-29T02:32:20;15.60;;;3.38;;
58528;SDS011;44322;52.968;5.816;2023-05-29T02:34:47;12.63;;;2.63;;
58528;SDS011;44322;52.968;5.816;2023-05-29T02:37:13;12.35;;;2.95;;
58528;SDS011;44322;52.968;5.816;2023-05-29T02:39:38;13.05;;;2.97;;
58528;SDS011;44322;52.968;5.816;2023-05-29T02:42:05;12.43;;;3.10;;
58528;SDS011;44322;52.968;5.816;2023-05-29T02:44:31;11.32;;;2.95;;
58528;SDS011;44322;52.968;5.816;2023-05-29T02:46:56;16.20;;;3.35;;
58528;SDS011;44322;52.968;5.816;2023-05-29T02:49:22;15.20;;;3.30;;
58528;SDS011;44322;52.968;5.816;2023-05-29T02:51:47;9.27;;;2.80;;
58528;SDS011;44322;52.968;5.816;2023-05-29T02:54:13;12.55;;;3.03;;
58528;SDS011;44322;52.968;5.816;2023-05-29T02:56:39;16.20;;;2.80;;
58528;SDS011;44322;52.968;5.816;2023-05-29T02:59:05;12.52;;;3.10;;
58528;SDS011;44322;52.968;5.816;2023-05-29T03:01:31;13.68;;;3.15;;
58528;SDS011;44322;52.968;5.816;2023-05-29T03:03:58;15.82;;;3.22;;
58528;SDS011;44322;52.968;5.816;2023-05-29T03:06:24;15.55;;;3.95;;
58528;SDS011;44322;52.968;5.816;2023-05-29T03:08:50;12.18;;;2.90;;
58528;SDS011;44322;52.968;5.816;2023-05-29T03:11:16;12.98;;;3.22;;
58528;SDS011;44322;52.968;5.816;2023-05-29T03:13:42;14.63;;;3.33;;
58528;SDS011;44322;52.968;5.816;2023-05-29T03:16:09;17.80;;;3.55;;
58528;SDS011;44322;52.968;5.816;2023-05-29T03:18:37;15.05;;;3.33;;
58528;SDS011;44322;52.968;5.816;2023-05-29T03:21:02;13.68;;;3.10;;
58528;SDS011;44322;52.968;5.816;2023-05-29T03:23:31;15.50;;;3.08;;
58528;SDS011;44322;52.968;5.816;2023-05-29T03:25:57;15.30;;;3.65;;
58528;SDS011;44322;52.968;5.816;2023-05-29T03:28:23;14.32;;;2.90;;
58528;SDS011;44322;52.968;5.816;2023-05-29T03:30:50;12.35;;;3.45;;
58528;SDS011;44322;52.968;5.816;2023-05-29T03:33:19;10.40;;;2.92;;
58528;SDS011;44322;52.968;5.816;2023-05-29T03:36:03;14.98;;;3.58;;
58528;SDS011;44322;52.968;5.816;2023-05-29T03:38:29;16.30;;;4.18;;
58528;SDS011;44322;52.968;5.816;2023-05-29T03:40:57;18.67;;;3.67;;
58528;SDS011;44322;52.968;5.816;2023-05-29T03:43:23;12.95;;;3.35;;
58528;SDS011;44322;52.968;5.816;2023-05-29T03:45:49;16.25;;;3.55;;
58528;SDS011;44322;52.968;5.816;2023-05-29T03:48:15;16.50;;;3.67;;
58528;SDS011;44322;52.968;5.816;2023-05-29T03:50:42;13.83;;;3.00;;
58528;SDS011;44322;52.968;5.816;2023-05-29T03:53:08;11.50;;;3.20;;
58528;SDS011;44322;52.968;5.816;2023-05-29T03:55:33;12.65;;;3.10;;
58528;SDS011;44322;52.968;5.816;2023-05-29T03:57:59;15.23;;;3.35;;
58528;SDS011;44322;52.968;5.816;2023-05-29T04:00:25;14.40;;;3.30;;
58528;SDS011;44322;52.968;5.816;2023-05-29T04:02:51;15.52;;;3.15;;
58528;SDS011;44322;52.968;5.816;2023-05-29T04:05:18;9.90;;;3.15;;
58528;SDS011;44322;52.968;5.816;2023-05-29T04:07:45;13.82;;;3.30;;
58528;SDS011;44322;52.968;5.816;2023-05-29T04:10:10;12.50;;;2.70;;
58528;SDS011;44322;52.968;5.816;2023-05-29T04:12:36;18.48;;;3.30;;
58528;SDS011;44322;52.968;5.816;2023-05-29T04:15:01;14.68;;;3.05;;
58528;SDS011;44322;52.968;5.816;2023-05-29T04:17:28;16.05;;;3.20;;
58528;SDS011;44322;52.968;5.816;2023-05-29T04:19:54;11.50;;;3.00;;
58528;SDS011;44322;52.968;5.816;2023-05-29T04:22:20;10.05;;;3.08;;
58528;SDS011;44322;52.968;5.816;2023-05-29T04:24:46;8.60;;;2.63;;
58528;SDS011;44322;52.968;5.816;2023-05-29T04:27:12;10.32;;;2.85;;
58528;SDS011;44322;52.968;5.816;2023-05-29T04:29:39;12.77;;;3.42;;
58528;SDS011;44322;52.968;5.816;2023-05-29T04:32:07;14.30;;;3.47;;
58528;SDS011;44322;52.968;5.816;2023-05-29T04:34:35;10.85;;;3.15;;
58528;SDS011;44322;52.968;5.816;2023-05-29T04:37:01;12.93;;;3.10;;
58528;SDS011;44322;52.968;5.816;2023-05-29T04:39:28;10.95;;;2.72;;
58528;SDS011;44322;52.968;5.816;2023-05-29T04:41:54;10.38;;;2.60;;
58528;SDS011;44322;52.968;5.816;2023-05-29T04:44:22;11.75;;;2.67;;
58528;SDS011;44322;52.968;5.816;2023-05-29T04:46:53;15.93;;;3.60;;
58528;SDS011;44322;52.968;5.816;2023-05-29T04:49:19;10.35;;;2.80;;
58528;SDS011;44322;52.968;5.816;2023-05-29T04:51:46;12.57;;;3.15;;
58528;SDS011;44322;52.968;5.816;2023-05-29T04:54:11;10.90;;;3.05;;
58528;SDS011;44322;52.968;5.816;2023-05-29T04:56:39;14.80;;;3.55;;
58528;SDS011;44322;52.968;5.816;2023-05-29T04:59:10;12.05;;;2.97;;
58528;SDS011;44322;52.968;5.816;2023-05-29T05:01:36;12.18;;;2.72;;
58528;SDS011;44322;52.968;5.816;2023-05-29T05:04:01;12.48;;;2.90;;
58528;SDS011;44322;52.968;5.816;2023-05-29T05:06:27;11.23;;;3.25;;
58528;SDS011;44322;52.968;5.816;2023-05-29T05:08:54;9.85;;;2.30;;
58528;SDS011;44322;52.968;5.816;2023-05-29T05:11:19;13.85;;;3.00;;
58528;SDS011;44322;52.968;5.816;2023-05-29T05:13:47;15.13;;;2.90;;
58528;SDS011;44322;52.968;5.816;2023-05-29T05:16:13;10.40;;;2.42;;
58528;SDS011;44322;52.968;5.816;2023-05-29T05:18:40;9.82;;;2.75;;
58528;SDS011;44322;52.968;5.816;2023-05-29T05:21:07;9.13;;;2.78;;
58528;SDS011;44322;52.968;5.816;2023-05-29T05:23:35;14.75;;;3.47;;
58528;SDS011;44322;52.968;5.816;2023-05-29T05:26:01;10.23;;;2.67;;
58528;SDS011;44322;52.968;5.816;2023-05-29T05:28:28;14.48;;;3.15;;
58528;SDS011;44322;52.968;5.816;2023-05-29T05:30:53;13.15;;;2.97;;
58528;SDS011;44322;52.968;5.816;2023-05-29T05:33:19;12.40;;;2.42;;
58528;SDS011;44322;52.968;5.816;2023-05-29T05:35:45;9.20;;;2.72;;
58528;SDS011;44322;52.968;5.816;2023-05-29T05:38:11;15.07;;;3.10;;
58528;SDS011;44322;52.968;5.816;2023-05-29T05:40:37;13.77;;;2.70;;
58528;SDS011;44322;52.968;5.816;2023-05-29T05:43:12;12.45;;;2.72;;
58528;SDS011;44322;52.968;5.816;2023-05-29T05:45:58;12.77;;;2.53;;
58528;SDS011;44322;52.968;5.816;2023-05-29T05:48:24;9.60;;;2.63;;
58528;SDS011;44322;52.968;5.816;2023-05-29T05:50:50;9.25;;;3.17;;
58528;SDS011;44322;52.968;5.816;2023-05-29T05:53:15;8.77;;;2.30;;
58528;SDS011;44322;52.968;5.816;2023-05-29T05:55:42;10.65;;;2.40;;
58528;SDS011;44322;52.968;5.816;2023-05-29T05:58:08;12.43;;;2.75;;
58528;SDS011;44322;52.968;5.816;2023-05-29T06:00:34;7.20;;;1.75;;
58528;SDS011;44322;52.968;5.816;2023-05-29T06:03:01;12.23;;;2.10;;
58528;SDS011;44322;52.968;5.816;2023-05-29T06:05:48;12.00;;;3.15;;
58528;SDS011;44322;52.968;5.816;2023-05-29T06:08:15;14.57;;;2.20;;
58528;SDS011;44322;52.968;5.816;2023-05-29T06:10:41;9.50;;;2.20;;
58528;SDS011;44322;52.968;5.816;2023-05-29T06:13:07;14.05;;;2.28;;
58528;SDS011;44322;52.968;5.816;2023-05-29T06:15:43;14.52;;;2.67;;
58528;SDS011;44322;52.968;5.816;2023-05-29T06:18:09;10.60;;;2.40;;
58528;SDS011;44322;52.968;5.816;2023-05-29T06:20:34;11.18;;;2.83;;
58528;SDS011;44322;52.968;5.816;2023-05-29T06:23:01;12.75;;;2.90;;
58528;SDS011;44322;52.968;5.816;2023-05-29T06:25:27;8.85;;;2.63;;
58528;SDS011;44322;52.968;5.816;2023-05-29T06:27:59;13.32;;;3.08;;
58528;SDS011;44322;52.968;5.816;2023-05-29T06:30:25;11.13;;;2.70;;
58528;SDS011;44322;52.968;5.816;2023-05-29T06:32:51;14.63;;;3.10;;
58528;SDS011;44322;52.968;5.816;2023-05-29T06:35:17;10.30;;;2.55;;
58528;SDS011;44322;52.968;5.816;2023-05-29T06:37:43;14.60;;;3.13;;
58528;SDS011;44322;52.968;5.816;2023-05-29T06:40:09;13.45;;;2.78;;
58528;SDS011;44322;52.968;5.816;2023-05-29T06:42:35;12.07;;;2.90;;
58528;SDS011;44322;52.968;5.816;2023-05-29T06:45:06;11.57;;;2.83;;
58528;SDS011;44322;52.968;5.816;2023-05-29T06:47:32;14.45;;;2.83;;
58528;SDS011;44322;52.968;5.816;2023-05-29T06:49:58;11.15;;;3.05;;
58528;SDS011;44322;52.968;5.816;2023-05-29T06:52:24;16.40;;;3.20;;
58528;SDS011;44322;52.968;5.816;2023-05-29T06:55:24;16.80;;;3.00;;
58528;SDS011;44322;52.968;5.816;2023-05-29T06:57:50;14.75;;;2.92;;
58528;SDS011;44322;52.968;5.816;2023-05-29T07:00:16;16.83;;;3.53;;
58528;SDS011;44322;52.968;5.816;2023-05-29T07:02:51;11.88;;;3.35;;
58528;SDS011;44322;52.968;5.816;2023-05-29T07:05:17;13.10;;;2.90;;
58528;SDS011;44322;52.968;5.816;2023-05-29T07:07:43;13.40;;;3.00;;
58528;SDS011;44322;52.968;5.816;2023-05-29T07:10:10;15.57;;;3.20;;
58528;SDS011;44322;52.968;5.816;2023-05-29T07:12:36;12.45;;;2.90;;
58528;SDS011;44322;52.968;5.816;2023-05-29T07:15:03;13.52;;;3.95;;
58528;SDS011;44322;52.968;5.816;2023-05-29T07:17:29;12.23;;;3.38;;
58528;SDS011;44322;52.968;5.816;2023-05-29T07:20:05;16.67;;;3.53;;
58528;SDS011;44322;52.968;5.816;2023-05-29T07:22:34;13.88;;;3.03;;
58528;SDS011;44322;52.968;5.816;2023-05-29T07:25:00;15.77;;;3.28;;
58528;SDS011;44322;52.968;5.816;2023-05-29T07:27:26;17.83;;;3.20;;
58528;SDS011;44322;52.968;5.816;2023-05-29T07:29:53;11.52;;;3.45;;
58528;SDS011;44322;52.968;5.816;2023-05-29T07:32:18;15.52;;;3.03;;
58528;SDS011;44322;52.968;5.816;2023-05-29T07:34:44;13.65;;;3.42;;
58528;SDS011;44322;52.968;5.816;2023-05-29T07:37:10;12.90;;;3.33;;
58528;SDS011;44322;52.968;5.816;2023-05-29T07:39:38;15.45;;;3.17;;
58528;SDS011;44322;52.968;5.816;2023-05-29T07:42:14;12.77;;;3.45;;
58528;SDS011;44322;52.968;5.816;2023-05-29T07:44:41;13.82;;;3.63;;
58528;SDS011;44322;52.968;5.816;2023-05-29T07:47:11;13.50;;;3.53;;
58528;SDS011;44322;52.968;5.816;2023-05-29T07:49:40;14.50;;;4.30;;
58528;SDS011;44322;52.968;5.816;2023-05-29T07:52:08;12.95;;;3.67;;
58528;SDS011;44322;52.968;5.816;2023-05-29T07:54:34;15.57;;;3.80;;
58528;SDS011;44322;52.968;5.816;2023-05-29T07:57:01;15.55;;;3.50;;
58528;SDS011;44322;52.968;5.816;2023-05-29T07:59:37;16.20;;;4.05;;
58528;SDS011;44322;52.968;5.816;2023-05-29T08:02:04;12.05;;;3.35;;
58528;SDS011;44322;52.968;5.816;2023-05-29T08:05:00;14.93;;;3.72;;
58528;SDS011;44322;52.968;5.816;2023-05-29T08:07:25;15.93;;;4.05;;
58528;SDS011;44322;52.968;5.816;2023-05-29T08:09:54;14.10;;;3.92;;
58528;SDS011;44322;52.968;5.816;2023-05-29T08:12:19;16.10;;;3.78;;
58528;SDS011;44322;52.968;5.816;2023-05-29T08:14:47;16.30;;;3.60;;
58528;SDS011;44322;52.968;5.816;2023-05-29T08:17:13;15.23;;;3.78;;
58528;SDS011;44322;52.968;5.816;2023-05-29T08:19:38;15.75;;;4.10;;
58528;SDS011;44322;52.968;5.816;2023-05-29T08:22:04;18.08;;;4.10;;
58528;SDS011;44322;52.968;5.816;2023-05-29T08:24:30;15.48;;;3.78;;
58528;SDS011;44322;52.968;5.816;2023-05-29T08:26:56;13.70;;;4.07;;
58528;SDS011;44322;52.968;5.816;2023-05-29T08:29:22;14.52;;;3.80;;
58528;SDS011;44322;52.968;5.816;2023-05-29T08:31:48;13.73;;;3.65;;
58528;SDS011;44322;52.968;5.816;2023-05-29T08:34:13;12.80;;;3.50;;
58528;SDS011;44322;52.968;5.816;2023-05-29T08:36:39;16.52;;;3.88;;
58528;SDS011;44322;52.968;5.816;2023-05-29T08:39:06;12.15;;;3.40;;
58528;SDS011;44322;52.968;5.816;2023-05-29T08:41:42;11.52;;;3.40;;
58528;SDS011;44322;52.968;5.816;2023-05-29T08:44:12;18.38;;;4.03;;
58528;SDS011;44322;52.968;5.816;2023-05-29T08:46:38;14.67;;;3.37;;
58528;SDS011;44322;52.968;5.816;2023-05-29T08:49:05;11.27;;;3.63;;
58528;SDS011;44322;52.968;5.816;2023-05-29T08:54:00;17.67;;;3.63;;
58528;SDS011;44322;52.968;5.816;2023-05-29T08:56:27;20.48;;;3.75;;
58528;SDS011;44322;52.968;5.816;2023-05-29T08:58:52;19.23;;;3.70;;
58528;SDS011;44322;52.968;5.816;2023-05-29T09:01:18;11.23;;;3.30;;
58528;SDS011;44322;52.968;5.816;2023-05-29T09:03:46;17.23;;;3.65;;
58528;SDS011;44322;52.968;5.816;2023-05-29T09:06:12;16.33;;;4.63;;
58528;SDS011;44322;52.968;5.816;2023-05-29T09:08:38;13.43;;;3.15;;
58528;SDS011;44322;52.968;5.816;2023-05-29T09:11:03;13.20;;;3.50;;
58528;SDS011;44322;52.968;5.816;2023-05-29T09:13:29;12.93;;;3.45;;
58528;SDS011;44322;52.968;5.816;2023-05-29T09:15:58;15.10;;;3.75;;
58528;SDS011;44322;52.968;5.816;2023-05-29T09:18:28;15.18;;;3.67;;
58528;SDS011;44322;52.968;5.816;2023-05-29T09:20:55;14.27;;;3.80;;
58528;SDS011;44322;52.968;5.816;2023-05-29T09:23:20;17.30;;;3.83;;
58528;SDS011;44322;52.968;5.816;2023-05-29T09:25:46;18.05;;;4.05;;
58528;SDS011;44322;52.968;5.816;2023-05-29T09:28:17;17.23;;;3.60;;
58528;SDS011;44322;52.968;5.816;2023-05-29T09:30:44;13.80;;;3.35;;
58528;SDS011;44322;52.968;5.816;2023-05-29T09:33:11;13.30;;;3.50;;
58528;SDS011;44322;52.968;5.816;2023-05-29T09:35:39;12.02;;;3.20;;
58528;SDS011;44322;52.968;5.816;2023-05-29T09:38:05;15.77;;;4.22;;
58528;SDS011;44322;52.968;5.816;2023-05-29T09:40:33;13.67;;;3.43;;
58528;SDS011;44322;52.968;5.816;2023-05-29T09:43:03;18.70;;;3.70;;
58528;SDS011;44322;52.968;5.816;2023-05-29T09:45:39;16.52;;;3.60;;
58528;SDS011;44322;52.968;5.816;2023-05-29T09:48:32;19.38;;;4.28;;
58528;SDS011;44322;52.968;5.816;2023-05-29T09:50:57;18.55;;;3.50;;
58528;SDS011;44322;52.968;5.816;2023-05-29T09:53:24;15.00;;;3.30;;
58528;SDS011;44322;52.968;5.816;2023-05-29T09:55:50;15.77;;;3.90;;
58528;SDS011;44322;52.968;5.816;2023-05-29T09:58:20;15.60;;;4.03;;
58528;SDS011;44322;52.968;5.816;2023-05-29T10:00:46;14.98;;;3.83;;
58528;SDS011;44322;52.968;5.816;2023-05-29T10:03:12;15.90;;;3.90;;
58528;SDS011;44322;52.968;5.816;2023-05-29T10:05:39;17.15;;;3.60;;
58528;SDS011;44322;52.968;5.816;2023-05-29T10:08:07;15.05;;;3.63;;
58528;SDS011;44322;52.968;5.816;2023-05-29T10:10:34;16.65;;;4.10;;
58528;SDS011;44322;52.968;5.816;2023-05-29T10:13:00;18.52;;;4.20;;
58528;SDS011;44322;52.968;5.816;2023-05-29T10:15:28;17.90;;;3.95;;
58528;SDS011;44322;52.968;5.816;2023-05-29T10:18:01;17.20;;;3.67;;
58528;SDS011;44322;52.968;5.816;2023-05-29T10:20:29;17.42;;;3.38;;
58528;SDS011;44322;52.968;5.816;2023-05-29T10:22:56;17.20;;;3.92;;
58528;SDS011;44322;52.968;5.816;2023-05-29T10:25:25;19.83;;;4.10;;
58528;SDS011;44322;52.968;5.816;2023-05-29T10:27:53;16.70;;;3.67;;
58528;SDS011;44322;52.968;5.816;2023-05-29T10:33:14;10.98;;;3.22;;
58528;SDS011;44322;52.968;5.816;2023-05-29T10:35:48;10.75;;;3.35;;
58528;SDS011;44322;52.968;5.816;2023-05-29T10:38:18;16.33;;;3.72;;
58528;SDS011;44322;52.968;5.816;2023-05-29T10:40:44;13.88;;;3.35;;
58528;SDS011;44322;52.968;5.816;2023-05-29T10:43:29;15.68;;;3.72;;
58528;SDS011;44322;52.968;5.816;2023-05-29T10:45:57;14.43;;;3.40;;
58528;SDS011;44322;52.968;5.816;2023-05-29T10:50:53;16.73;;;3.67;;
58528;SDS011;44322;52.968;5.816;2023-05-29T10:53:24;10.48;;;3.05;;
58528;SDS011;44322;52.968;5.816;2023-05-29T10:55:53;19.00;;;3.70;;
58528;SDS011;44322;52.968;5.816;2023-05-29T10:58:23;15.23;;;3.35;;
58528;SDS011;44322;52.968;5.816;2023-05-29T11:00:53;18.55;;;3.53;;
58528;SDS011;44322;52.968;5.816;2023-05-29T11:03:22;15.30;;;3.33;;
58528;SDS011;44322;52.968;5.816;2023-05-29T11:06:16;12.80;;;3.92;;
58528;SDS011;44322;52.968;5.816;2023-05-29T11:11:13;15.32;;;3.92;;
58528;SDS011;44322;52.968;5.816;2023-05-29T11:13:39;15.70;;;4.00;;
58528;SDS011;44322;52.968;5.816;2023-05-29T11:18:40;18.42;;;4.13;;
58528;SDS011;44322;52.968;5.816;2023-05-29T11:21:22;12.20;;;3.13;;
58528;SDS011;44322;52.968;5.816;2023-05-29T11:23:53;11.68;;;2.90;;
58528;SDS011;44322;52.968;5.816;2023-05-29T11:26:20;19.63;;;3.90;;
58528;SDS011;44322;52.968;5.816;2023-05-29T11:28:47;16.25;;;3.22;;
58528;SDS011;44322;52.968;5.816;2023-05-29T11:31:13;15.27;;;3.10;;
58528;SDS011;44322;52.968;5.816;2023-05-29T11:33:44;11.48;;;3.13;;
58528;SDS011;44322;52.968;5.816;2023-05-29T11:36:12;17.60;;;3.58;;
58528;SDS011;44322;52.968;5.816;2023-05-29T11:38:39;12.47;;;2.77;;
58528;SDS011;44322;52.968;5.816;2023-05-29T11:41:05;13.68;;;3.35;;
58528;SDS011;44322;52.968;5.816;2023-05-29T11:43:31;12.73;;;3.35;;
58528;SDS011;44322;52.968;5.816;2023-05-29T11:45:57;11.85;;;3.33;;
58528;SDS011;44322;52.968;5.816;2023-05-29T11:48:23;16.00;;;3.90;;
58528;SDS011;44322;52.968;5.816;2023-05-29T11:50:49;11.38;;;2.88;;
58528;SDS011;44322;52.968;5.816;2023-05-29T11:53:15;10.68;;;3.20;;
58528;SDS011;44322;52.968;5.816;2023-05-29T11:55:41;14.45;;;3.40;;
58528;SDS011;44322;52.968;5.816;2023-05-29T11:58:06;10.82;;;3.08;;
58528;SDS011;44322;52.968;5.816;2023-05-29T12:00:33;16.42;;;3.55;;
58528;SDS011;44322;52.968;5.816;2023-05-29T12:03:03;13.07;;;3.13;;
58528;SDS011;44322;52.968;5.816;2023-05-29T12:05:30;12.13;;;2.88;;
58528;SDS011;44322;52.968;5.816;2023-05-29T12:07:56;12.32;;;3.15;;
58528;SDS011;44322;52.968;5.816;2023-05-29T12:10:22;8.68;;;2.72;;
58528;SDS011;44322;52.968;5.816;2023-05-29T12:15:17;17.48;;;4.63;;
58528;SDS011;44322;52.968;5.816;2023-05-29T12:17:44;16.55;;;3.53;;
58528;SDS011;44322;52.968;5.816;2023-05-29T12:20:11;15.00;;;3.35;;
58528;SDS011;44322;52.968;5.816;2023-05-29T12:22:38;17.05;;;4.20;;
58528;SDS011;44322;52.968;5.816;2023-05-29T12:25:11;13.87;;;3.37;;
58528;SDS011;44322;52.968;5.816;2023-05-29T12:27:41;12.90;;;3.20;;
58528;SDS011;44322;52.968;5.816;2023-05-29T12:30:16;13.07;;;3.28;;
58528;SDS011;44322;52.968;5.816;2023-05-29T12:32:46;14.20;;;3.65;;
58528;SDS011;44322;52.968;5.816;2023-05-29T12:35:13;17.35;;;3.60;;
58528;SDS011;44322;52.968;5.816;2023-05-29T12:40:16;12.73;;;3.08;;
58528;SDS011;44322;52.968;5.816;2023-05-29T12:42:41;11.90;;;3.40;;
58528;SDS011;44322;52.968;5.816;2023-05-29T12:45:08;12.57;;;2.88;;
58528;SDS011;44322;52.968;5.816;2023-05-29T12:47:35;11.20;;;3.00;;
58528;SDS011;44322;52.968;5.816;2023-05-29T12:50:14;13.35;;;2.92;;
58528;SDS011;44322;52.968;5.816;2023-05-29T12:52:45;12.00;;;3.00;;
58528;SDS011;44322;52.968;5.816;2023-05-29T12:55:11;10.20;;;2.83;;
58528;SDS011;44322;52.968;5.816;2023-05-29T12:57:36;14.07;;;3.35;;
58528;SDS011;44322;52.968;5.816;2023-05-29T13:00:02;12.18;;;3.25;;
58528;SDS011;44322;52.968;5.816;2023-05-29T13:02:28;15.55;;;3.40;;
58528;SDS011;44322;52.968;5.816;2023-05-29T13:04:55;10.35;;;2.58;;
58528;SDS011;44322;52.968;5.816;2023-05-29T13:07:20;11.73;;;3.13;;
58528;SDS011;44322;52.968;5.816;2023-05-29T13:09:46;14.40;;;2.95;;
58528;SDS011;44322;52.968;5.816;2023-05-29T13:12:12;11.15;;;3.28;;
58528;SDS011;44322;52.968;5.816;2023-05-29T13:14:37;11.05;;;3.17;;
58528;SDS011;44322;52.968;5.816;2023-05-29T13:17:03;11.48;;;2.97;;
58528;SDS011;44322;52.968;5.816;2023-05-29T13:19:29;13.90;;;3.42;;
58528;SDS011;44322;52.968;5.816;2023-05-29T13:21:54;15.88;;;3.55;;
58528;SDS011;44322;52.968;5.816;2023-05-29T13:24:20;10.30;;;2.72;;
58528;SDS011;44322;52.968;5.816;2023-05-29T13:26:46;14.25;;;3.10;;
58528;SDS011;44322;52.968;5.816;2023-05-29T13:29:12;10.95;;;3.08;;
58528;SDS011;44322;52.968;5.816;2023-05-29T13:31:37;12.00;;;2.70;;
58528;SDS011;44322;52.968;5.816;2023-05-29T13:34:03;15.00;;;3.25;;
58528;SDS011;44322;52.968;5.816;2023-05-29T13:36:28;15.20;;;2.95;;
58528;SDS011;44322;52.968;5.816;2023-05-29T13:38:54;12.15;;;3.00;;
58528;SDS011;44322;52.968;5.816;2023-05-29T13:41:19;12.32;;;2.90;;
58528;SDS011;44322;52.968;5.816;2023-05-29T13:43:45;10.23;;;2.70;;
58528;SDS011;44322;52.968;5.816;2023-05-29T13:46:11;11.85;;;2.70;;
58528;SDS011;44322;52.968;5.816;2023-05-29T13:48:37;13.25;;;2.97;;
58528;SDS011;44322;52.968;5.816;2023-05-29T13:51:03;14.07;;;3.03;;
58528;SDS011;44322;52.968;5.816;2023-05-29T13:53:28;11.80;;;2.72;;
58528;SDS011;44322;52.968;5.816;2023-05-29T13:55:54;7.82;;;2.50;;
58528;SDS011;44322;52.968;5.816;2023-05-29T13:58:20;9.77;;;2.78;;
58528;SDS011;44322;52.968;5.816;2023-05-29T14:00:45;9.00;;;2.70;;
58528;SDS011;44322;52.968;5.816;2023-05-29T14:03:11;9.48;;;2.42;;
58528;SDS011;44322;52.968;5.816;2023-05-29T14:05:36;9.85;;;2.75;;
58528;SDS011;44322;52.968;5.816;2023-05-29T14:08:02;10.75;;;2.65;;
58528;SDS011;44322;52.968;5.816;2023-05-29T14:10:28;11.75;;;2.75;;
58528;SDS011;44322;52.968;5.816;2023-05-29T14:12:53;8.63;;;2.47;;
58528;SDS011;44322;52.968;5.816;2023-05-29T14:15:19;8.90;;;2.47;;
58528;SDS011;44322;52.968;5.816;2023-05-29T14:17:44;12.55;;;2.83;;
58528;SDS011;44322;52.968;5.816;2023-05-29T14:20:10;9.95;;;2.90;;
58528;SDS011;44322;52.968;5.816;2023-05-29T14:22:35;12.27;;;2.80;;
58528;SDS011;44322;52.968;5.816;2023-05-29T14:25:02;11.32;;;2.50;;
58528;SDS011;44322;52.968;5.816;2023-05-29T14:27:29;11.77;;;3.10;;
58528;SDS011;44322;52.968;5.816;2023-05-29T14:29:55;9.63;;;2.60;;
58528;SDS011;44322;52.968;5.816;2023-05-29T14:32:20;11.00;;;2.83;;
58528;SDS011;44322;52.968;5.816;2023-05-29T14:34:46;11.70;;;2.67;;
58528;SDS011;44322;52.968;5.816;2023-05-29T14:37:11;14.82;;;3.20;;
58528;SDS011;44322;52.968;5.816;2023-05-29T14:39:37;12.02;;;2.90;;
58528;SDS011;44322;52.968;5.816;2023-05-29T14:42:03;9.82;;;2.45;;
58528;SDS011;44322;52.968;5.816;2023-05-29T14:44:28;9.32;;;2.75;;
58528;SDS011;44322;52.968;5.816;2023-05-29T14:46:54;13.30;;;2.60;;
58528;SDS011;44322;52.968;5.816;2023-05-29T14:49:19;10.23;;;2.50;;
58528;SDS011;44322;52.968;5.816;2023-05-29T14:51:46;6.10;;;2.20;;
58528;SDS011;44322;52.968;5.816;2023-05-29T14:54:12;9.45;;;2.42;;
58528;SDS011;44322;52.968;5.816;2023-05-29T14:56:37;11.85;;;2.50;;
58528;SDS011;44322;52.968;5.816;2023-05-29T14:59:03;8.63;;;2.10;;
58528;SDS011;44322;52.968;5.816;2023-05-29T15:01:29;7.22;;;2.47;;
58528;SDS011;44322;52.968;5.816;2023-05-29T15:03:54;8.10;;;2.10;;
58528;SDS011;44322;52.968;5.816;2023-05-29T15:06:20;8.65;;;2.17;;
58528;SDS011;44322;52.968;5.816;2023-05-29T15:08:45;7.13;;;2.03;;
58528;SDS011;44322;52.968;5.816;2023-05-29T15:11:11;5.13;;;2.10;;